sensor_id;sensor_type;location;lat;lon;timestamp;P1;durP1;ratioP1;P2;durP2;ratioP2
6053;SDS011;3055;50.886;14.814;2023-03-14T00:00:49;6.17;;;5.43;;
6053;SDS011;3055;50.886;14.814;2023-03-14T00:03:16;7.57;;;5.77;;
6053;SDS011;3055;50.886;14.814;2023-03-14T00:05:43;8.40;;;5.63;;
6053;SDS011;3055;50.886;14.814;2023-03-14T00:08:10;6.80;;;5.80;;
6053;SDS011;3055;50.886;14.814;2023-03-14T00:10:37;9.23;;;6.13;;
6053;SDS011;3055;50.886;14.814;2023-03-14T00:13:06;9.73;;;5.77;;
6053;SDS011;3055;50.886;14.814;2023-03-14T00:15:33;6.53;;;5.13;;
6053;SDS011;3055;50.886;14.814;2023-03-14T00:18:00;6.40;;;5.20;;
6053;SDS011;3055;50.886;14.814;2023-03-14T00:20:27;7.63;;;5.60;;
6053;SDS011;3055;50.886;14.814;2023-03-14T00:22:54;5.97;;;5.37;;
6053;SDS011;3055;50.886;14.814;2023-03-14T00:25:21;9.73;;;4.93;;
6053;SDS011;3055;50.886;14.814;2023-03-14T00:27:50;7.03;;;5.47;;
6053;SDS011;3055;50.886;14.814;2023-03-14T00:30:18;5.70;;;5.10;;
6053;SDS011;3055;50.886;14.814;2023-03-14T00:32:45;7.50;;;6.00;;
6053;SDS011;3055;50.886;14.814;2023-03-14T00:35:12;8.33;;;5.50;;
6053;SDS011;3055;50.886;14.814;2023-03-14T00:37:40;6.40;;;5.47;;
6053;SDS011;3055;50.886;14.814;2023-03-14T00:40:07;6.83;;;5.40;;
6053;SDS011;3055;50.886;14.814;2023-03-14T00:42:35;7.23;;;4.87;;
6053;SDS011;3055;50.886;14.814;2023-03-14T00:45:02;5.57;;;4.97;;
6053;SDS011;3055;50.886;14.814;2023-03-14T00:47:31;5.83;;;4.47;;
6053;SDS011;3055;50.886;14.814;2023-03-14T00:49:58;5.83;;;4.63;;
6053;SDS011;3055;50.886;14.814;2023-03-14T00:52:25;8.03;;;4.90;;
6053;SDS011;3055;50.886;14.814;2023-03-14T00:54:52;6.27;;;4.43;;
6053;SDS011;3055;50.886;14.814;2023-03-14T00:57:19;9.83;;;4.83;;
6053;SDS011;3055;50.886;14.814;2023-03-14T00:59:46;9.40;;;5.03;;
6053;SDS011;3055;50.886;14.814;2023-03-14T01:02:13;5.50;;;4.80;;
6053;SDS011;3055;50.886;14.814;2023-03-14T01:04:41;7.10;;;4.90;;
6053;SDS011;3055;50.886;14.814;2023-03-14T01:07:09;5.60;;;4.70;;
6053;SDS011;3055;50.886;14.814;2023-03-14T01:09:36;6.27;;;4.70;;
6053;SDS011;3055;50.886;14.814;2023-03-14T01:12:03;5.80;;;5.20;;
6053;SDS011;3055;50.886;14.814;2023-03-14T01:14:30;5.60;;;5.10;;
6053;SDS011;3055;50.886;14.814;2023-03-14T01:16:57;6.27;;;5.67;;
6053;SDS011;3055;50.886;14.814;2023-03-14T01:19:26;7.70;;;4.80;;
6053;SDS011;3055;50.886;14.814;2023-03-14T01:21:54;6.27;;;4.70;;
6053;SDS011;3055;50.886;14.814;2023-03-14T01:24:21;5.70;;;5.00;;
6053;SDS011;3055;50.886;14.814;2023-03-14T01:26:49;7.97;;;5.20;;
6053;SDS011;3055;50.886;14.814;2023-03-14T01:29:16;5.67;;;4.67;;
6053;SDS011;3055;50.886;14.814;2023-03-14T01:31:43;7.00;;;5.13;;
6053;SDS011;3055;50.886;14.814;2023-03-14T01:34:10;4.77;;;4.30;;
6053;SDS011;3055;50.886;14.814;2023-03-14T01:36:37;7.00;;;4.60;;
6053;SDS011;3055;50.886;14.814;2023-03-14T01:39:05;4.97;;;4.57;;
6053;SDS011;3055;50.886;14.814;2023-03-14T01:41:33;5.47;;;4.87;;
6053;SDS011;3055;50.886;14.814;2023-03-14T01:44:01;4.67;;;4.27;;
6053;SDS011;3055;50.886;14.814;2023-03-14T01:46:29;5.73;;;4.60;;
6053;SDS011;3055;50.886;14.814;2023-03-14T01:49:03;5.10;;;4.43;;
6053;SDS011;3055;50.886;14.814;2023-03-14T01:51:45;5.90;;;4.73;;
6053;SDS011;3055;50.886;14.814;2023-03-14T01:54:18;6.40;;;4.60;;
6053;SDS011;3055;50.886;14.814;2023-03-14T01:56:50;5.00;;;4.50;;
6053;SDS011;3055;50.886;14.814;2023-03-14T01:59:19;5.33;;;4.80;;
6053;SDS011;3055;50.886;14.814;2023-03-14T02:01:47;5.70;;;4.77;;
6053;SDS011;3055;50.886;14.814;2023-03-14T02:04:16;6.23;;;4.90;;
6053;SDS011;3055;50.886;14.814;2023-03-14T02:06:50;6.93;;;5.47;;
6053;SDS011;3055;50.886;14.814;2023-03-14T02:09:22;6.73;;;5.10;;
6053;SDS011;3055;50.886;14.814;2023-03-14T02:11:49;6.53;;;5.93;;
6053;SDS011;3055;50.886;14.814;2023-03-14T02:14:20;7.03;;;5.60;;
6053;SDS011;3055;50.886;14.814;2023-03-14T02:16:53;5.57;;;5.07;;
6053;SDS011;3055;50.886;14.814;2023-03-14T02:19:22;6.50;;;5.80;;
6053;SDS011;3055;50.886;14.814;2023-03-14T02:21:59;6.40;;;5.70;;
6053;SDS011;3055;50.886;14.814;2023-03-14T02:24:36;6.77;;;5.57;;
6053;SDS011;3055;50.886;14.814;2023-03-14T02:27:11;8.80;;;5.90;;
6053;SDS011;3055;50.886;14.814;2023-03-14T02:29:41;7.23;;;5.37;;
6053;SDS011;3055;50.886;14.814;2023-03-14T02:32:13;6.23;;;5.63;;
6053;SDS011;3055;50.886;14.814;2023-03-14T02:34:42;7.77;;;6.30;;
6053;SDS011;3055;50.886;14.814;2023-03-14T02:37:14;8.87;;;6.03;;
6053;SDS011;3055;50.886;14.814;2023-03-14T02:39:44;6.57;;;5.93;;
6053;SDS011;3055;50.886;14.814;2023-03-14T02:42:16;5.67;;;5.17;;
6053;SDS011;3055;50.886;14.814;2023-03-14T02:44:51;6.70;;;5.73;;
6053;SDS011;3055;50.886;14.814;2023-03-14T02:47:20;6.37;;;5.77;;
6053;SDS011;3055;50.886;14.814;2023-03-14T02:49:53;6.10;;;5.50;;
6053;SDS011;3055;50.886;14.814;2023-03-14T02:52:26;7.60;;;6.13;;
6053;SDS011;3055;50.886;14.814;2023-03-14T02:54:53;7.27;;;6.00;;
6053;SDS011;3055;50.886;14.814;2023-03-14T02:57:21;7.67;;;6.00;;
6053;SDS011;3055;50.886;14.814;2023-03-14T02:59:48;8.10;;;6.27;;
6053;SDS011;3055;50.886;14.814;2023-03-14T03:02:15;7.03;;;5.90;;
6053;SDS011;3055;50.886;14.814;2023-03-14T03:04:43;8.50;;;6.10;;
6053;SDS011;3055;50.886;14.814;2023-03-14T03:07:10;8.13;;;6.07;;
6053;SDS011;3055;50.886;14.814;2023-03-14T03:09:37;7.27;;;6.57;;
6053;SDS011;3055;50.886;14.814;2023-03-14T03:12:04;7.83;;;6.77;;
6053;SDS011;3055;50.886;14.814;2023-03-14T03:14:32;9.53;;;6.80;;
6053;SDS011;3055;50.886;14.814;2023-03-14T03:16:59;7.20;;;6.07;;
6053;SDS011;3055;50.886;14.814;2023-03-14T03:19:26;8.13;;;6.90;;
6053;SDS011;3055;50.886;14.814;2023-03-14T03:21:53;8.10;;;6.50;;
6053;SDS011;3055;50.886;14.814;2023-03-14T03:24:20;7.50;;;6.73;;
6053;SDS011;3055;50.886;14.814;2023-03-14T03:26:47;7.40;;;6.70;;
6053;SDS011;3055;50.886;14.814;2023-03-14T03:29:15;7.73;;;6.77;;
6053;SDS011;3055;50.886;14.814;2023-03-14T03:31:43;7.67;;;6.80;;
6053;SDS011;3055;50.886;14.814;2023-03-14T03:34:11;7.33;;;6.50;;
6053;SDS011;3055;50.886;14.814;2023-03-14T03:36:38;7.70;;;6.43;;
6053;SDS011;3055;50.886;14.814;2023-03-14T03:39:06;7.53;;;6.17;;
6053;SDS011;3055;50.886;14.814;2023-03-14T03:41:33;7.20;;;6.37;;
6053;SDS011;3055;50.886;14.814;2023-03-14T03:44:00;8.13;;;6.20;;
6053;SDS011;3055;50.886;14.814;2023-03-14T03:46:27;6.90;;;5.97;;
6053;SDS011;3055;50.886;14.814;2023-03-14T03:48:56;6.50;;;5.90;;
6053;SDS011;3055;50.886;14.814;2023-03-14T03:51:24;6.80;;;6.20;;
6053;SDS011;3055;50.886;14.814;2023-03-14T03:53:51;6.13;;;5.63;;
6053;SDS011;3055;50.886;14.814;2023-03-14T03:56:19;7.17;;;6.07;;
6053;SDS011;3055;50.886;14.814;2023-03-14T03:58:46;6.67;;;5.37;;
6053;SDS011;3055;50.886;14.814;2023-03-14T04:01:15;7.87;;;5.80;;
6053;SDS011;3055;50.886;14.814;2023-03-14T04:03:42;8.13;;;5.20;;
6053;SDS011;3055;50.886;14.814;2023-03-14T04:06:11;7.87;;;5.07;;
6053;SDS011;3055;50.886;14.814;2023-03-14T04:08:39;7.57;;;6.47;;
6053;SDS011;3055;50.886;14.814;2023-03-14T04:11:06;7.60;;;5.60;;
6053;SDS011;3055;50.886;14.814;2023-03-14T04:13:33;5.90;;;5.10;;
6053;SDS011;3055;50.886;14.814;2023-03-14T04:16:00;6.03;;;5.53;;
6053;SDS011;3055;50.886;14.814;2023-03-14T04:18:27;9.80;;;5.70;;
6053;SDS011;3055;50.886;14.814;2023-03-14T04:20:56;6.70;;;6.07;;
6053;SDS011;3055;50.886;14.814;2023-03-14T04:23:25;6.57;;;5.67;;
6053;SDS011;3055;50.886;14.814;2023-03-14T04:25:52;9.33;;;6.00;;
6053;SDS011;3055;50.886;14.814;2023-03-14T04:28:19;5.90;;;5.30;;
6053;SDS011;3055;50.886;14.814;2023-03-14T04:30:46;7.83;;;5.60;;
6053;SDS011;3055;50.886;14.814;2023-03-14T04:33:13;6.23;;;5.60;;
6053;SDS011;3055;50.886;14.814;2023-03-14T04:35:42;6.40;;;5.63;;
6053;SDS011;3055;50.886;14.814;2023-03-14T04:38:09;8.83;;;5.77;;
6053;SDS011;3055;50.886;14.814;2023-03-14T04:40:38;6.60;;;5.67;;
6053;SDS011;3055;50.886;14.814;2023-03-14T04:43:05;7.70;;;5.63;;
6053;SDS011;3055;50.886;14.814;2023-03-14T04:45:33;8.03;;;6.10;;
6053;SDS011;3055;50.886;14.814;2023-03-14T04:48:00;6.83;;;6.10;;
6053;SDS011;3055;50.886;14.814;2023-03-14T04:50:27;9.70;;;6.87;;
6053;SDS011;3055;50.886;14.814;2023-03-14T04:52:54;6.97;;;6.30;;
6053;SDS011;3055;50.886;14.814;2023-03-14T04:55:21;8.33;;;7.53;;
6053;SDS011;3055;50.886;14.814;2023-03-14T04:57:50;8.80;;;6.70;;
6053;SDS011;3055;50.886;14.814;2023-03-14T05:00:17;11.20;;;7.53;;
6053;SDS011;3055;50.886;14.814;2023-03-14T05:02:44;9.27;;;6.93;;
6053;SDS011;3055;50.886;14.814;2023-03-14T05:05:11;8.03;;;7.13;;
6053;SDS011;3055;50.886;14.814;2023-03-14T05:07:38;8.50;;;6.70;;
6053;SDS011;3055;50.886;14.814;2023-03-14T05:10:06;11.07;;;7.03;;
6053;SDS011;3055;50.886;14.814;2023-03-14T05:12:33;8.50;;;7.13;;
6053;SDS011;3055;50.886;14.814;2023-03-14T05:15:02;7.90;;;7.10;;
6053;SDS011;3055;50.886;14.814;2023-03-14T05:17:29;8.60;;;7.07;;
6053;SDS011;3055;50.886;14.814;2023-03-14T05:19:56;10.13;;;7.13;;
6053;SDS011;3055;50.886;14.814;2023-03-14T05:22:23;7.80;;;7.00;;
6053;SDS011;3055;50.886;14.814;2023-03-14T05:24:51;7.57;;;6.77;;
6053;SDS011;3055;50.886;14.814;2023-03-14T05:27:18;7.50;;;6.50;;
6053;SDS011;3055;50.886;14.814;2023-03-14T05:29:46;10.50;;;7.43;;
6053;SDS011;3055;50.886;14.814;2023-03-14T05:32:15;7.57;;;6.73;;
6053;SDS011;3055;50.886;14.814;2023-03-14T05:34:42;9.43;;;7.03;;
6053;SDS011;3055;50.886;14.814;2023-03-14T05:37:09;8.40;;;6.90;;
6053;SDS011;3055;50.886;14.814;2023-03-14T05:39:36;8.87;;;7.07;;
6053;SDS011;3055;50.886;14.814;2023-03-14T05:42:03;7.17;;;6.47;;
6053;SDS011;3055;50.886;14.814;2023-03-14T05:44:30;7.17;;;6.47;;
6053;SDS011;3055;50.886;14.814;2023-03-14T05:46:57;10.23;;;7.03;;
6053;SDS011;3055;50.886;14.814;2023-03-14T05:49:26;7.60;;;6.10;;
6053;SDS011;3055;50.886;14.814;2023-03-14T05:51:53;7.57;;;6.63;;
6053;SDS011;3055;50.886;14.814;2023-03-14T05:54:20;8.83;;;7.37;;
6053;SDS011;3055;50.886;14.814;2023-03-14T05:56:47;6.70;;;5.63;;
6053;SDS011;3055;50.886;14.814;2023-03-14T05:59:14;6.40;;;5.77;;
6053;SDS011;3055;50.886;14.814;2023-03-14T06:01:41;6.23;;;5.03;;
6053;SDS011;3055;50.886;14.814;2023-03-14T06:04:08;7.33;;;5.97;;
6053;SDS011;3055;50.886;14.814;2023-03-14T06:06:36;6.50;;;5.90;;
6053;SDS011;3055;50.886;14.814;2023-03-14T06:09:03;7.73;;;5.63;;
6053;SDS011;3055;50.886;14.814;2023-03-14T06:11:31;6.07;;;5.47;;
6053;SDS011;3055;50.886;14.814;2023-03-14T06:13:58;6.60;;;5.13;;
6053;SDS011;3055;50.886;14.814;2023-03-14T06:16:25;7.67;;;5.27;;
6053;SDS011;3055;50.886;14.814;2023-03-14T06:18:52;7.30;;;5.70;;
6053;SDS011;3055;50.886;14.814;2023-03-14T06:21:19;8.73;;;5.90;;
6053;SDS011;3055;50.886;14.814;2023-03-14T06:23:48;6.20;;;5.60;;
6053;SDS011;3055;50.886;14.814;2023-03-14T06:26:15;6.70;;;5.60;;
6053;SDS011;3055;50.886;14.814;2023-03-14T06:28:42;7.17;;;5.40;;
6053;SDS011;3055;50.886;14.814;2023-03-14T06:31:09;8.00;;;5.00;;
6053;SDS011;3055;50.886;14.814;2023-03-14T06:33:36;6.50;;;5.77;;
6053;SDS011;3055;50.886;14.814;2023-03-14T06:36:03;6.70;;;5.80;;
6053;SDS011;3055;50.886;14.814;2023-03-14T06:38:31;5.90;;;5.20;;
6053;SDS011;3055;50.886;14.814;2023-03-14T06:41:04;5.93;;;5.33;;
6053;SDS011;3055;50.886;14.814;2023-03-14T06:43:31;6.30;;;5.10;;
6053;SDS011;3055;50.886;14.814;2023-03-14T06:45:58;7.27;;;5.53;;
6053;SDS011;3055;50.886;14.814;2023-03-14T06:48:25;7.10;;;5.53;;
6053;SDS011;3055;50.886;14.814;2023-03-14T06:50:53;7.33;;;5.70;;
6053;SDS011;3055;50.886;14.814;2023-03-14T06:53:20;8.97;;;5.77;;
6053;SDS011;3055;50.886;14.814;2023-03-14T06:55:47;8.03;;;6.23;;
6053;SDS011;3055;50.886;14.814;2023-03-14T06:58:15;9.70;;;6.87;;
6053;SDS011;3055;50.886;14.814;2023-03-14T07:00:43;8.60;;;6.20;;
6053;SDS011;3055;50.886;14.814;2023-03-14T07:03:10;11.10;;;6.60;;
6053;SDS011;3055;50.886;14.814;2023-03-14T07:05:39;8.17;;;5.30;;
6053;SDS011;3055;50.886;14.814;2023-03-14T07:08:06;11.27;;;5.57;;
6053;SDS011;3055;50.886;14.814;2023-03-14T07:10:34;5.93;;;5.33;;
6053;SDS011;3055;50.886;14.814;2023-03-14T07:13:01;9.23;;;5.50;;
6053;SDS011;3055;50.886;14.814;2023-03-14T07:15:30;5.93;;;5.33;;
6053;SDS011;3055;50.886;14.814;2023-03-14T07:17:57;8.03;;;5.50;;
6053;SDS011;3055;50.886;14.814;2023-03-14T07:20:24;7.27;;;4.93;;
6053;SDS011;3055;50.886;14.814;2023-03-14T07:22:51;8.13;;;5.40;;
6053;SDS011;3055;50.886;14.814;2023-03-14T07:25:19;6.97;;;5.00;;
6053;SDS011;3055;50.886;14.814;2023-03-14T07:27:46;6.53;;;4.77;;
6053;SDS011;3055;50.886;14.814;2023-03-14T07:30:13;5.63;;;5.10;;
6053;SDS011;3055;50.886;14.814;2023-03-14T07:32:42;6.03;;;5.10;;
6053;SDS011;3055;50.886;14.814;2023-03-14T07:35:11;6.00;;;5.20;;
6053;SDS011;3055;50.886;14.814;2023-03-14T07:37:38;6.10;;;5.30;;
6053;SDS011;3055;50.886;14.814;2023-03-14T07:40:06;8.47;;;5.93;;
6053;SDS011;3055;50.886;14.814;2023-03-14T07:42:35;5.90;;;5.07;;
6053;SDS011;3055;50.886;14.814;2023-03-14T07:45:02;6.00;;;5.00;;
6053;SDS011;3055;50.886;14.814;2023-03-14T07:47:30;6.43;;;5.80;;
6053;SDS011;3055;50.886;14.814;2023-03-14T07:49:59;6.07;;;5.20;;
6053;SDS011;3055;50.886;14.814;2023-03-14T07:52:26;6.17;;;5.57;;
6053;SDS011;3055;50.886;14.814;2023-03-14T07:54:53;6.03;;;5.07;;
6053;SDS011;3055;50.886;14.814;2023-03-14T07:57:20;6.27;;;5.63;;
6053;SDS011;3055;50.886;14.814;2023-03-14T07:59:47;8.60;;;6.27;;
6053;SDS011;3055;50.886;14.814;2023-03-14T08:02:14;6.93;;;5.17;;
6053;SDS011;3055;50.886;14.814;2023-03-14T08:04:41;5.20;;;4.53;;
6053;SDS011;3055;50.886;14.814;2023-03-14T08:07:10;4.80;;;4.17;;
6053;SDS011;3055;50.886;14.814;2023-03-14T08:09:37;6.87;;;4.97;;
6053;SDS011;3055;50.886;14.814;2023-03-14T08:12:04;5.70;;;4.87;;
6053;SDS011;3055;50.886;14.814;2023-03-14T08:14:31;5.43;;;4.20;;
6053;SDS011;3055;50.886;14.814;2023-03-14T08:16:59;9.20;;;6.40;;
6053;SDS011;3055;50.886;14.814;2023-03-14T08:19:26;4.30;;;3.00;;
6053;SDS011;3055;50.886;14.814;2023-03-14T08:21:53;4.20;;;3.20;;
6053;SDS011;3055;50.886;14.814;2023-03-14T08:24:21;4.90;;;3.00;;
6053;SDS011;3055;50.886;14.814;2023-03-14T08:26:48;4.37;;;2.90;;
6053;SDS011;3055;50.886;14.814;2023-03-14T08:29:15;4.00;;;2.90;;
6053;SDS011;3055;50.886;14.814;2023-03-14T08:31:44;3.23;;;2.77;;
6053;SDS011;3055;50.886;14.814;2023-03-14T08:34:11;3.27;;;2.80;;
6053;SDS011;3055;50.886;14.814;2023-03-14T08:36:38;3.40;;;2.80;;
6053;SDS011;3055;50.886;14.814;2023-03-14T08:39:05;3.53;;;3.10;;
6053;SDS011;3055;50.886;14.814;2023-03-14T08:41:35;4.00;;;2.87;;
6053;SDS011;3055;50.886;14.814;2023-03-14T08:44:05;4.90;;;3.30;;
6053;SDS011;3055;50.886;14.814;2023-03-14T08:46:32;4.80;;;2.57;;
6053;SDS011;3055;50.886;14.814;2023-03-14T08:48:59;4.40;;;2.87;;
6053;SDS011;3055;50.886;14.814;2023-03-14T08:51:26;4.93;;;2.80;;
6053;SDS011;3055;50.886;14.814;2023-03-14T08:53:53;4.43;;;2.60;;
6053;SDS011;3055;50.886;14.814;2023-03-14T08:56:20;3.30;;;2.67;;
6053;SDS011;3055;50.886;14.814;2023-03-14T08:58:49;4.23;;;2.17;;
6053;SDS011;3055;50.886;14.814;2023-03-14T09:01:16;5.03;;;2.57;;
6053;SDS011;3055;50.886;14.814;2023-03-14T09:03:44;2.37;;;2.10;;
6053;SDS011;3055;50.886;14.814;2023-03-14T09:06:13;2.57;;;2.23;;
6053;SDS011;3055;50.886;14.814;2023-03-14T09:08:43;1.97;;;1.83;;
6053;SDS011;3055;50.886;14.814;2023-03-14T09:11:10;3.93;;;2.80;;
6053;SDS011;3055;50.886;14.814;2023-03-14T09:13:38;2.97;;;2.23;;
6053;SDS011;3055;50.886;14.814;2023-03-14T09:16:07;3.53;;;2.17;;
6053;SDS011;3055;50.886;14.814;2023-03-14T09:18:34;3.73;;;2.30;;
6053;SDS011;3055;50.886;14.814;2023-03-14T09:21:02;2.93;;;1.93;;
6053;SDS011;3055;50.886;14.814;2023-03-14T09:23:29;2.37;;;2.00;;
6053;SDS011;3055;50.886;14.814;2023-03-14T09:25:57;2.37;;;2.03;;
6053;SDS011;3055;50.886;14.814;2023-03-14T09:28:24;3.90;;;2.97;;
6053;SDS011;3055;50.886;14.814;2023-03-14T09:30:51;3.73;;;2.07;;
6053;SDS011;3055;50.886;14.814;2023-03-14T09:33:20;2.53;;;2.10;;
6053;SDS011;3055;50.886;14.814;2023-03-14T09:35:48;2.60;;;1.80;;
6053;SDS011;3055;50.886;14.814;2023-03-14T09:38:15;2.03;;;1.70;;
6053;SDS011;3055;50.886;14.814;2023-03-14T09:40:42;2.60;;;2.00;;
6053;SDS011;3055;50.886;14.814;2023-03-14T09:43:10;1.87;;;1.57;;
6053;SDS011;3055;50.886;14.814;2023-03-14T09:45:40;2.73;;;2.00;;
6053;SDS011;3055;50.886;14.814;2023-03-14T09:48:11;2.37;;;1.70;;
6053;SDS011;3055;50.886;14.814;2023-03-14T09:50:44;2.47;;;1.80;;
6053;SDS011;3055;50.886;14.814;2023-03-14T09:53:17;3.67;;;1.73;;
6053;SDS011;3055;50.886;14.814;2023-03-14T09:55:45;1.70;;;1.60;;
6053;SDS011;3055;50.886;14.814;2023-03-14T09:58:16;2.30;;;1.60;;
6053;SDS011;3055;50.886;14.814;2023-03-14T10:00:45;1.40;;;1.30;;
6053;SDS011;3055;50.886;14.814;2023-03-14T10:03:19;3.83;;;1.50;;
6053;SDS011;3055;50.886;14.814;2023-03-14T10:05:51;1.30;;;1.20;;
6053;SDS011;3055;50.886;14.814;2023-03-14T10:08:19;2.03;;;1.40;;
6053;SDS011;3055;50.886;14.814;2023-03-14T10:10:46;2.23;;;1.40;;
6053;SDS011;3055;50.886;14.814;2023-03-14T10:13:15;2.57;;;1.40;;
6053;SDS011;3055;50.886;14.814;2023-03-14T10:15:47;4.47;;;2.20;;
6053;SDS011;3055;50.886;14.814;2023-03-14T10:18:17;1.50;;;1.40;;
6053;SDS011;3055;50.886;14.814;2023-03-14T10:20:45;1.77;;;1.67;;
6053;SDS011;3055;50.886;14.814;2023-03-14T10:23:23;2.43;;;1.90;;
6053;SDS011;3055;50.886;14.814;2023-03-14T10:26:03;2.87;;;1.83;;
6053;SDS011;3055;50.886;14.814;2023-03-14T10:28:34;3.67;;;2.00;;
6053;SDS011;3055;50.886;14.814;2023-03-14T10:31:06;6.40;;;3.63;;
6053;SDS011;3055;50.886;14.814;2023-03-14T10:33:33;4.37;;;2.60;;
6053;SDS011;3055;50.886;14.814;2023-03-14T10:36:03;1.50;;;1.40;;
6053;SDS011;3055;50.886;14.814;2023-03-14T10:38:35;3.53;;;2.17;;
6053;SDS011;3055;50.886;14.814;2023-03-14T10:41:05;3.80;;;1.90;;
6053;SDS011;3055;50.886;14.814;2023-03-14T10:43:42;7.63;;;6.93;;
6053;SDS011;3055;50.886;14.814;2023-03-14T10:46:13;1.97;;;1.80;;
6053;SDS011;3055;50.886;14.814;2023-03-14T10:48:43;2.10;;;1.73;;
6053;SDS011;3055;50.886;14.814;2023-03-14T10:51:11;3.93;;;1.50;;
6053;SDS011;3055;50.886;14.814;2023-03-14T10:53:48;1.40;;;1.30;;
6053;SDS011;3055;50.886;14.814;2023-03-14T10:56:17;6.90;;;5.00;;
6053;SDS011;3055;50.886;14.814;2023-03-14T10:58:47;4.13;;;3.30;;
6053;SDS011;3055;50.886;14.814;2023-03-14T11:01:23;4.03;;;3.60;;
6053;SDS011;3055;50.886;14.814;2023-03-14T11:03:56;7.07;;;6.00;;
6053;SDS011;3055;50.886;14.814;2023-03-14T11:06:28;2.47;;;2.20;;
6053;SDS011;3055;50.886;14.814;2023-03-14T11:09:05;2.80;;;1.77;;
6053;SDS011;3055;50.886;14.814;2023-03-14T11:11:41;5.60;;;5.20;;
6053;SDS011;3055;50.886;14.814;2023-03-14T11:14:16;3.27;;;2.40;;
6053;SDS011;3055;50.886;14.814;2023-03-14T11:16:54;4.37;;;3.97;;
6053;SDS011;3055;50.886;14.814;2023-03-14T11:19:31;1.70;;;1.60;;
6053;SDS011;3055;50.886;14.814;2023-03-14T11:22:13;3.00;;;1.57;;
6053;SDS011;3055;50.886;14.814;2023-03-14T11:24:53;3.00;;;2.80;;
6053;SDS011;3055;50.886;14.814;2023-03-14T11:27:35;3.63;;;3.30;;
6053;SDS011;3055;50.886;14.814;2023-03-14T11:30:18;3.53;;;1.77;;
6053;SDS011;3055;50.886;14.814;2023-03-14T11:32:50;2.53;;;1.70;;
6053;SDS011;3055;50.886;14.814;2023-03-14T11:35:24;2.30;;;1.40;;
6053;SDS011;3055;50.886;14.814;2023-03-14T11:37:55;2.23;;;1.40;;
6053;SDS011;3055;50.886;14.814;2023-03-14T11:40:31;2.77;;;1.80;;
6053;SDS011;3055;50.886;14.814;2023-03-14T11:43:00;4.67;;;2.00;;
6053;SDS011;3055;50.886;14.814;2023-03-14T11:45:32;3.37;;;1.73;;
6053;SDS011;3055;50.886;14.814;2023-03-14T11:48:14;2.47;;;1.43;;
6053;SDS011;3055;50.886;14.814;2023-03-14T11:50:47;2.23;;;1.57;;
6053;SDS011;3055;50.886;14.814;2023-03-14T11:53:18;2.33;;;1.60;;
6053;SDS011;3055;50.886;14.814;2023-03-14T11:55:50;2.80;;;1.87;;
6053;SDS011;3055;50.886;14.814;2023-03-14T11:58:19;2.57;;;1.37;;
6053;SDS011;3055;50.886;14.814;2023-03-14T12:00:50;3.57;;;1.50;;
6053;SDS011;3055;50.886;14.814;2023-03-14T12:03:22;2.57;;;1.83;;
6053;SDS011;3055;50.886;14.814;2023-03-14T12:06:05;3.13;;;1.40;;
6053;SDS011;3055;50.886;14.814;2023-03-14T12:08:46;2.07;;;1.73;;
6053;SDS011;3055;50.886;14.814;2023-03-14T12:11:19;2.57;;;1.67;;
6053;SDS011;3055;50.886;14.814;2023-03-14T12:13:52;4.43;;;1.70;;
6053;SDS011;3055;50.886;14.814;2023-03-14T12:19:23;1.67;;;1.57;;
6053;SDS011;3055;50.886;14.814;2023-03-14T12:22:08;2.10;;;1.60;;
6053;SDS011;3055;50.886;14.814;2023-03-14T12:24:51;2.33;;;1.50;;
6053;SDS011;3055;50.886;14.814;2023-03-14T12:27:40;1.50;;;1.40;;
6053;SDS011;3055;50.886;14.814;2023-03-14T12:30:35;2.40;;;1.67;;
6053;SDS011;3055;50.886;14.814;2023-03-14T12:39:00;5.00;;;4.60;;
6053;SDS011;3055;50.886;14.814;2023-03-14T12:41:36;4.40;;;4.00;;
6053;SDS011;3055;50.886;14.814;2023-03-14T12:50:18;1.70;;;1.60;;
6053;SDS011;3055;50.886;14.814;2023-03-14T12:55:54;1.73;;;1.40;;
6053;SDS011;3055;50.886;14.814;2023-03-14T12:58:29;2.77;;;1.63;;
6053;SDS011;3055;50.886;14.814;2023-03-14T13:01:01;2.13;;;1.60;;
6053;SDS011;3055;50.886;14.814;2023-03-14T13:03:36;1.53;;;1.43;;
6053;SDS011;3055;50.886;14.814;2023-03-14T13:06:09;2.83;;;1.70;;
6053;SDS011;3055;50.886;14.814;2023-03-14T13:08:38;3.27;;;1.67;;
6053;SDS011;3055;50.886;14.814;2023-03-14T13:11:08;1.50;;;1.40;;
6053;SDS011;3055;50.886;14.814;2023-03-14T13:13:37;1.50;;;1.40;;
6053;SDS011;3055;50.886;14.814;2023-03-14T13:16:12;2.43;;;1.50;;
6053;SDS011;3055;50.886;14.814;2023-03-14T13:18:43;2.07;;;1.33;;
6053;SDS011;3055;50.886;14.814;2023-03-14T13:21:12;1.63;;;1.13;;
6053;SDS011;3055;50.886;14.814;2023-03-14T13:23:42;2.87;;;1.80;;
6053;SDS011;3055;50.886;14.814;2023-03-14T13:26:21;1.70;;;1.37;;
6053;SDS011;3055;50.886;14.814;2023-03-14T13:28:50;2.00;;;1.40;;
6053;SDS011;3055;50.886;14.814;2023-03-14T13:31:21;2.33;;;1.50;;
6053;SDS011;3055;50.886;14.814;2023-03-14T13:33:59;4.00;;;1.13;;
6053;SDS011;3055;50.886;14.814;2023-03-14T13:36:27;1.50;;;1.40;;
6053;SDS011;3055;50.886;14.814;2023-03-14T13:38:55;3.60;;;1.20;;
6053;SDS011;3055;50.886;14.814;2023-03-14T13:41:24;2.70;;;1.40;;
6053;SDS011;3055;50.886;14.814;2023-03-14T13:43:51;2.03;;;1.50;;
6053;SDS011;3055;50.886;14.814;2023-03-14T13:46:26;1.67;;;1.30;;
6053;SDS011;3055;50.886;14.814;2023-03-14T13:48:54;2.03;;;1.30;;
6053;SDS011;3055;50.886;14.814;2023-03-14T13:51:23;1.60;;;1.20;;
6053;SDS011;3055;50.886;14.814;2023-03-14T13:53:55;1.90;;;1.23;;
6053;SDS011;3055;50.886;14.814;2023-03-14T13:56:23;2.03;;;1.60;;
6053;SDS011;3055;50.886;14.814;2023-03-14T13:58:52;2.00;;;1.33;;
6053;SDS011;3055;50.886;14.814;2023-03-14T14:01:20;2.10;;;1.50;;
6053;SDS011;3055;50.886;14.814;2023-03-14T14:03:52;1.40;;;1.20;;
6053;SDS011;3055;50.886;14.814;2023-03-14T14:06:28;1.50;;;1.40;;
6053;SDS011;3055;50.886;14.814;2023-03-14T14:08:57;5.60;;;1.30;;
6053;SDS011;3055;50.886;14.814;2023-03-14T14:11:31;1.33;;;1.23;;
6053;SDS011;3055;50.886;14.814;2023-03-14T14:14:04;1.43;;;1.27;;
6053;SDS011;3055;50.886;14.814;2023-03-14T14:16:36;4.83;;;1.60;;
6053;SDS011;3055;50.886;14.814;2023-03-14T14:19:05;1.50;;;1.40;;
6053;SDS011;3055;50.886;14.814;2023-03-14T14:21:32;6.90;;;1.40;;
6053;SDS011;3055;50.886;14.814;2023-03-14T14:23:59;1.97;;;1.47;;
6053;SDS011;3055;50.886;14.814;2023-03-14T14:26:26;23.97;;;13.27;;
6053;SDS011;3055;50.886;14.814;2023-03-14T14:29:00;10.40;;;6.63;;
6053;SDS011;3055;50.886;14.814;2023-03-14T14:31:29;9.57;;;6.13;;
6053;SDS011;3055;50.886;14.814;2023-03-14T14:33:57;8.27;;;4.97;;
6053;SDS011;3055;50.886;14.814;2023-03-14T14:36:27;4.83;;;2.70;;
6053;SDS011;3055;50.886;14.814;2023-03-14T14:38:58;3.83;;;3.43;;
6053;SDS011;3055;50.886;14.814;2023-03-14T14:41:26;5.10;;;3.07;;
6053;SDS011;3055;50.886;14.814;2023-03-14T14:43:56;8.83;;;4.70;;
6053;SDS011;3055;50.886;14.814;2023-03-14T14:46:25;3.67;;;2.87;;
6053;SDS011;3055;50.886;14.814;2023-03-14T14:48:55;4.60;;;2.67;;
6053;SDS011;3055;50.886;14.814;2023-03-14T14:51:24;2.33;;;1.93;;
6053;SDS011;3055;50.886;14.814;2023-03-14T14:54:05;1.97;;;1.60;;
6053;SDS011;3055;50.886;14.814;2023-03-14T14:56:38;3.07;;;1.60;;
6053;SDS011;3055;50.886;14.814;2023-03-14T14:59:06;2.90;;;1.50;;
6053;SDS011;3055;50.886;14.814;2023-03-14T15:01:45;1.97;;;1.40;;
6053;SDS011;3055;50.886;14.814;2023-03-14T15:04:15;1.60;;;1.43;;
6053;SDS011;3055;50.886;14.814;2023-03-14T15:06:44;1.63;;;1.53;;
6053;SDS011;3055;50.886;14.814;2023-03-14T15:09:13;1.90;;;1.37;;
6053;SDS011;3055;50.886;14.814;2023-03-14T15:11:41;2.20;;;1.50;;
6053;SDS011;3055;50.886;14.814;2023-03-14T15:14:08;1.60;;;1.50;;
6053;SDS011;3055;50.886;14.814;2023-03-14T15:16:35;2.00;;;1.67;;
6053;SDS011;3055;50.886;14.814;2023-03-14T15:19:05;1.60;;;1.50;;
6053;SDS011;3055;50.886;14.814;2023-03-14T15:21:36;2.63;;;2.00;;
6053;SDS011;3055;50.886;14.814;2023-03-14T15:24:05;2.90;;;1.60;;
6053;SDS011;3055;50.886;14.814;2023-03-14T15:26:34;1.70;;;1.50;;
6053;SDS011;3055;50.886;14.814;2023-03-14T15:29:01;1.57;;;1.30;;
6053;SDS011;3055;50.886;14.814;2023-03-14T15:31:29;3.23;;;2.33;;